sensor_id;sensor_type;location;lat;lon;timestamp;pressure;altitude;pressure_sealevel;temperature;humidity
63691;BME280;49837;57.280;27.070;2023-07-31T00:00:47;99303.55;;;15.76;91.37
63691;BME280;49837;57.280;27.070;2023-07-31T00:01:47;99305.72;;;15.79;91.12
63691;BME280;49837;57.280;27.070;2023-07-31T00:02:48;99304.91;;;15.8;91.02
63691;BME280;49837;57.280;27.070;2023-07-31T00:03:49;99304.63;;;15.79;91.15
63691;BME280;49837;57.280;27.070;2023-07-31T00:04:49;99301.63;;;15.77;91.17
63691;BME280;49837;57.280;27.070;2023-07-31T00:05:49;99298.55;;;15.77;91.16
63691;BME280;49837;57.280;27.070;2023-07-31T00:06:50;99301.58;;;15.76;91.24
63691;BME280;49837;57.280;27.070;2023-07-31T00:07:51;99301.6;;;15.74;91.54
63691;BME280;49837;57.280;27.070;2023-07-31T00:08:51;99298.97;;;15.74;91.47
63691;BME280;49837;57.280;27.070;2023-07-31T00:09:51;99297.16;;;15.7;91.59
63691;BME280;49837;57.280;27.070;2023-07-31T00:10:52;99301.97;;;15.69;91.84
63691;BME280;49837;57.280;27.070;2023-07-31T00:11:52;99299.13;;;15.69;91.88
63691;BME280;49837;57.280;27.070;2023-07-31T00:12:52;99298.14;;;15.72;91.91
63691;BME280;49837;57.280;27.070;2023-07-31T00:13:53;99302.56;;;15.74;91.34
63691;BME280;49837;57.280;27.070;2023-07-31T00:14:53;99300.6;;;15.78;91.41
63691;BME280;49837;57.280;27.070;2023-07-31T00:15:54;99300.91;;;15.82;91.13
63691;BME280;49837;57.280;27.070;2023-07-31T00:16:54;99299.71;;;15.85;91.19
63691;BME280;49837;57.280;27.070;2023-07-31T00:17:55;99304.06;;;15.88;90.98
63691;BME280;49837;57.280;27.070;2023-07-31T00:18:55;99301.03;;;15.9;91.02
63691;BME280;49837;57.280;27.070;2023-07-31T00:19:56;99302.48;;;15.91;90.92
63691;BME280;49837;57.280;27.070;2023-07-31T00:20:56;99306.53;;;15.91;90.73
63691;BME280;49837;57.280;27.070;2023-07-31T00:21:57;99304.92;;;15.94;90.5
63691;BME280;49837;57.280;27.070;2023-07-31T00:22:57;99303.41;;;15.93;90.65
63691;BME280;49837;57.280;27.070;2023-07-31T00:23:58;99304.3;;;15.94;90.69
63691;BME280;49837;57.280;27.070;2023-07-31T00:24:58;99308.77;;;15.95;90.9
63691;BME280;49837;57.280;27.070;2023-07-31T00:25:59;99304.39;;;15.9;91.46
63691;BME280;49837;57.280;27.070;2023-07-31T00:26:59;99304.09;;;15.87;91.86
63691;BME280;49837;57.280;27.070;2023-07-31T00:27:59;99307.84;;;15.87;91.88
63691;BME280;49837;57.280;27.070;2023-07-31T00:29:00;99304.57;;;15.88;92.12
63691;BME280;49837;57.280;27.070;2023-07-31T00:30:00;99305.08;;;15.88;92.16
63691;BME280;49837;57.280;27.070;2023-07-31T00:31:01;99304.53;;;15.86;92.17
63691;BME280;49837;57.280;27.070;2023-07-31T00:32:02;99302.61;;;15.86;92.64
63691;BME280;49837;57.280;27.070;2023-07-31T00:33:02;99302.0;;;15.86;92.56
63691;BME280;49837;57.280;27.070;2023-07-31T00:34:02;99302.72;;;15.85;92.4
63691;BME280;49837;57.280;27.070;2023-07-31T00:35:04;99300.93;;;15.86;92.5
63691;BME280;49837;57.280;27.070;2023-07-31T00:36:04;99299.94;;;15.88;92.37
63691;BME280;49837;57.280;27.070;2023-07-31T00:37:04;99300.14;;;15.91;92.04
63691;BME280;49837;57.280;27.070;2023-07-31T00:38:04;99292.36;;;15.94;91.76
63691;BME280;49837;57.280;27.070;2023-07-31T00:39:05;99290.7;;;15.96;91.75
63691;BME280;49837;57.280;27.070;2023-07-31T00:40:06;99294.48;;;15.96;92.03
63691;BME280;49837;57.280;27.070;2023-07-31T00:41:06;99294.42;;;15.95;92.34
63691;BME280;49837;57.280;27.070;2023-07-31T00:42:06;99289.05;;;15.99;91.82
63691;BME280;49837;57.280;27.070;2023-07-31T00:43:07;99289.45;;;16.0;91.61
63691;BME280;49837;57.280;27.070;2023-07-31T00:44:07;99284.5;;;15.97;91.6
63691;BME280;49837;57.280;27.070;2023-07-31T00:45:08;99288.2;;;15.95;91.91
63691;BME280;49837;57.280;27.070;2023-07-31T00:46:08;99285.33;;;15.96;91.98
63691;BME280;49837;57.280;27.070;2023-07-31T00:47:08;99289.76;;;15.96;91.99
63691;BME280;49837;57.280;27.070;2023-07-31T00:48:09;99286.8;;;15.96;92.01
63691;BME280;49837;57.280;27.070;2023-07-31T00:49:09;99288.5;;;15.99;91.79
63691;BME280;49837;57.280;27.070;2023-07-31T00:50:10;99284.62;;;15.99;91.87
63691;BME280;49837;57.280;27.070;2023-07-31T00:51:10;99283.09;;;16.0;91.99
63691;BME280;49837;57.280;27.070;2023-07-31T00:52:11;99283.2;;;16.0;92.22
63691;BME280;49837;57.280;27.070;2023-07-31T00:53:11;99283.42;;;16.02;92.39
63691;BME280;49837;57.280;27.070;2023-07-31T00:54:12;99286.8;;;16.01;92.48
63691;BME280;49837;57.280;27.070;2023-07-31T00:55:12;99287.09;;;16.0;92.62
63691;BME280;49837;57.280;27.070;2023-07-31T00:56:12;99287.91;;;16.0;92.45
63691;BME280;49837;57.280;27.070;2023-07-31T00:57:13;99288.86;;;16.03;92.56
63691;BME280;49837;57.280;27.070;2023-07-31T00:58:13;99288.09;;;16.01;92.53
63691;BME280;49837;57.280;27.070;2023-07-31T00:59:14;99289.78;;;16.0;92.67
63691;BME280;49837;57.280;27.070;2023-07-31T01:00:14;99291.52;;;16.01;92.69
63691;BME280;49837;57.280;27.070;2023-07-31T01:01:15;99291.28;;;16.0;92.8
63691;BME280;49837;57.280;27.070;2023-07-31T01:02:15;99290.71;;;16.03;92.85
63691;BME280;49837;57.280;27.070;2023-07-31T01:03:16;99290.83;;;16.05;92.76
63691;BME280;49837;57.280;27.070;2023-07-31T01:04:17;99288.41;;;16.08;92.65
63691;BME280;49837;57.280;27.070;2023-07-31T01:05:19;99287.8;;;16.11;92.67
63691;BME280;49837;57.280;27.070;2023-07-31T01:07:28;99295.12;;;16.13;92.85
63691;BME280;49837;57.280;27.070;2023-07-31T01:10:27;99293.52;;;16.11;92.5
63691;BME280;49837;57.280;27.070;2023-07-31T01:11:32;99293.3;;;16.12;92.44
63691;BME280;49837;57.280;27.070;2023-07-31T01:12:31;99295.75;;;16.13;92.48
63691;BME280;49837;57.280;27.070;2023-07-31T01:13:31;99294.59;;;16.16;92.41
63691;BME280;49837;57.280;27.070;2023-07-31T01:14:31;99297.03;;;16.15;92.78
63691;BME280;49837;57.280;27.070;2023-07-31T01:15:32;99294.11;;;16.14;92.54
63691;BME280;49837;57.280;27.070;2023-07-31T01:16:33;99295.94;;;16.16;92.32
63691;BME280;49837;57.280;27.070;2023-07-31T01:17:33;99295.31;;;16.18;92.38
63691;BME280;49837;57.280;27.070;2023-07-31T01:18:33;99296.34;;;16.16;92.75
63691;BME280;49837;57.280;27.070;2023-07-31T01:19:34;99295.62;;;16.1;93.02
63691;BME280;49837;57.280;27.070;2023-07-31T01:20:36;99296.83;;;16.12;93.0
63691;BME280;49837;57.280;27.070;2023-07-31T01:26:53;99305.48;;;16.15;93.39
63691;BME280;49837;57.280;27.070;2023-07-31T01:28:04;99303.72;;;16.14;93.63
63691;BME280;49837;57.280;27.070;2023-07-31T01:29:11;99308.75;;;16.13;93.88
63691;BME280;49837;57.280;27.070;2023-07-31T01:30:08;99309.72;;;16.12;93.98
63691;BME280;49837;57.280;27.070;2023-07-31T01:31:00;99308.81;;;16.13;93.82
63691;BME280;49837;57.280;27.070;2023-07-31T01:32:01;99309.17;;;16.13;94.12
63691;BME280;49837;57.280;27.070;2023-07-31T01:33:00;99308.55;;;16.12;93.93
63691;BME280;49837;57.280;27.070;2023-07-31T01:34:01;99308.75;;;16.13;93.87
63691;BME280;49837;57.280;27.070;2023-07-31T01:35:01;99311.3;;;16.11;94.15
63691;BME280;49837;57.280;27.070;2023-07-31T01:36:01;99311.87;;;16.12;94.24
63691;BME280;49837;57.280;27.070;2023-07-31T01:37:01;99311.67;;;16.13;94.3
63691;BME280;49837;57.280;27.070;2023-07-31T01:38:02;99311.77;;;16.1;94.48
63691;BME280;49837;57.280;27.070;2023-07-31T01:39:02;99314.88;;;16.12;94.18
63691;BME280;49837;57.280;27.070;2023-07-31T01:40:03;99312.06;;;16.15;94.07
63691;BME280;49837;57.280;27.070;2023-07-31T01:41:03;99312.03;;;16.17;94.26
63691;BME280;49837;57.280;27.070;2023-07-31T01:42:04;99316.48;;;16.14;94.49
63691;BME280;49837;57.280;27.070;2023-07-31T01:43:04;99315.95;;;16.12;94.67
63691;BME280;49837;57.280;27.070;2023-07-31T01:44:05;99319.66;;;16.1;94.83
63691;BME280;49837;57.280;27.070;2023-07-31T01:45:06;99315.92;;;16.09;94.83
63691;BME280;49837;57.280;27.070;2023-07-31T01:46:05;99318.16;;;16.1;95.12
63691;BME280;49837;57.280;27.070;2023-07-31T01:47:06;99317.09;;;16.09;95.22
63691;BME280;49837;57.280;27.070;2023-07-31T01:48:06;99316.28;;;16.07;95.27
63691;BME280;49837;57.280;27.070;2023-07-31T01:49:07;99315.95;;;16.11;95.5
63691;BME280;49837;57.280;27.070;2023-07-31T01:50:08;99314.22;;;16.13;95.57
63691;BME280;49837;57.280;27.070;2023-07-31T01:51:08;99320.27;;;16.13;95.51
63691;BME280;49837;57.280;27.070;2023-07-31T01:52:08;99322.32;;;16.15;95.11
63691;BME280;49837;57.280;27.070;2023-07-31T01:53:09;99320.73;;;16.15;94.99
63691;BME280;49837;57.280;27.070;2023-07-31T01:54:10;99321.45;;;16.17;94.91
63691;BME280;49837;57.280;27.070;2023-07-31T01:55:10;99321.62;;;16.2;94.87
63691;BME280;49837;57.280;27.070;2023-07-31T01:56:11;99321.27;;;16.18;95.06
63691;BME280;49837;57.280;27.070;2023-07-31T01:57:11;99319.98;;;16.19;94.92
63691;BME280;49837;57.280;27.070;2023-07-31T01:58:12;99320.14;;;16.15;95.05
63691;BME280;49837;57.280;27.070;2023-07-31T01:59:12;99316.05;;;16.17;94.55
63691;BME280;49837;57.280;27.070;2023-07-31T02:00:13;99315.54;;;16.18;94.18
63691;BME280;49837;57.280;27.070;2023-07-31T02:01:13;99313.83;;;16.2;94.5
63691;BME280;49837;57.280;27.070;2023-07-31T02:02:13;99315.6;;;16.19;94.41
63691;BME280;49837;57.280;27.070;2023-07-31T02:03:14;99313.97;;;16.18;93.95
63691;BME280;49837;57.280;27.070;2023-07-31T02:04:14;99314.27;;;16.21;94.03
63691;BME280;49837;57.280;27.070;2023-07-31T02:05:15;99316.39;;;16.24;93.9
63691;BME280;49837;57.280;27.070;2023-07-31T02:06:15;99316.66;;;16.25;93.98
63691;BME280;49837;57.280;27.070;2023-07-31T02:07:16;99316.55;;;16.24;94.12
63691;BME280;49837;57.280;27.070;2023-07-31T02:08:16;99320.06;;;16.21;94.27
63691;BME280;49837;57.280;27.070;2023-07-31T02:09:17;99318.26;;;16.22;94.49
63691;BME280;49837;57.280;27.070;2023-07-31T02:10:17;99320.49;;;16.21;94.38
63691;BME280;49837;57.280;27.070;2023-07-31T02:11:17;99319.82;;;16.21;94.06
63691;BME280;49837;57.280;27.070;2023-07-31T02:12:18;99319.67;;;16.21;93.98
63691;BME280;49837;57.280;27.070;2023-07-31T02:13:18;99322.08;;;16.2;94.35
63691;BME280;49837;57.280;27.070;2023-07-31T02:14:19;99328.08;;;16.22;94.29
63691;BME280;49837;57.280;27.070;2023-07-31T02:15:19;99327.91;;;16.21;94.43
63691;BME280;49837;57.280;27.070;2023-07-31T02:16:20;99329.8;;;16.22;94.4
63691;BME280;49837;57.280;27.070;2023-07-31T02:17:21;99331.22;;;16.2;94.63
63691;BME280;49837;57.280;27.070;2023-07-31T02:18:21;99335.31;;;16.22;94.56
63691;BME280;49837;57.280;27.070;2023-07-31T02:19:21;99334.02;;;16.22;94.39
63691;BME280;49837;57.280;27.070;2023-07-31T02:20:22;99336.36;;;16.23;94.28
63691;BME280;49837;57.280;27.070;2023-07-31T02:21:22;99336.3;;;16.23;94.33
63691;BME280;49837;57.280;27.070;2023-07-31T02:22:23;99336.06;;;16.24;94.12
63691;BME280;49837;57.280;27.070;2023-07-31T02:23:23;99339.02;;;16.22;94.14
63691;BME280;49837;57.280;27.070;2023-07-31T02:24:25;99342.14;;;16.23;94.35
63691;BME280;49837;57.280;27.070;2023-07-31T02:25:24;99339.94;;;16.24;94.19
63691;BME280;49837;57.280;27.070;2023-07-31T02:26:24;99343.52;;;16.26;94.08
63691;BME280;49837;57.280;27.070;2023-07-31T02:27:25;99344.84;;;16.27;94.18
63691;BME280;49837;57.280;27.070;2023-07-31T02:28:25;99346.32;;;16.25;94.27
63691;BME280;49837;57.280;27.070;2023-07-31T02:29:26;99345.34;;;16.27;94.07
63691;BME280;49837;57.280;27.070;2023-07-31T02:30:26;99342.35;;;16.24;94.1
63691;BME280;49837;57.280;27.070;2023-07-31T02:31:27;99346.66;;;16.24;94.09
63691;BME280;49837;57.280;27.070;2023-07-31T02:32:27;99342.55;;;16.26;94.03
63691;BME280;49837;57.280;27.070;2023-07-31T02:33:28;99345.7;;;16.25;94.42
63691;BME280;49837;57.280;27.070;2023-07-31T02:34:28;99344.27;;;16.28;94.29
63691;BME280;49837;57.280;27.070;2023-07-31T02:35:29;99341.78;;;16.29;94.31
63691;BME280;49837;57.280;27.070;2023-07-31T02:36:29;99341.72;;;16.3;94.26
63691;BME280;49837;57.280;27.070;2023-07-31T02:37:30;99343.33;;;16.31;94.25
63691;BME280;49837;57.280;27.070;2023-07-31T02:38:30;99343.18;;;16.3;94.45
63691;BME280;49837;57.280;27.070;2023-07-31T02:39:31;99343.12;;;16.29;94.53
63691;BME280;49837;57.280;27.070;2023-07-31T02:40:31;99346.62;;;16.28;94.59
63691;BME280;49837;57.280;27.070;2023-07-31T02:41:31;99342.6;;;16.27;94.52
63691;BME280;49837;57.280;27.070;2023-07-31T02:42:32;99346.32;;;16.25;94.39
63691;BME280;49837;57.280;27.070;2023-07-31T02:43:32;99342.42;;;16.27;94.64
63691;BME280;49837;57.280;27.070;2023-07-31T02:44:33;99345.2;;;16.24;94.92
63691;BME280;49837;57.280;27.070;2023-07-31T02:45:34;99342.7;;;16.23;94.93
63691;BME280;49837;57.280;27.070;2023-07-31T02:46:34;99341.94;;;16.21;95.16
63691;BME280;49837;57.280;27.070;2023-07-31T02:47:34;99342.97;;;16.18;95.25
63691;BME280;49837;57.280;27.070;2023-07-31T02:48:35;99342.75;;;16.19;95.04
63691;BME280;49837;57.280;27.070;2023-07-31T02:49:35;99342.72;;;16.21;94.95
63691;BME280;49837;57.280;27.070;2023-07-31T02:50:37;99343.11;;;16.2;95.21
63691;BME280;49837;57.280;27.070;2023-07-31T02:51:36;99339.69;;;16.2;95.13
63691;BME280;49837;57.280;27.070;2023-07-31T02:52:36;99339.5;;;16.21;95.02
63691;BME280;49837;57.280;27.070;2023-07-31T02:53:37;99340.36;;;16.21;95.11
63691;BME280;49837;57.280;27.070;2023-07-31T02:54:37;99339.34;;;16.23;94.61
63691;BME280;49837;57.280;27.070;2023-07-31T02:55:38;99340.97;;;16.22;94.53
63691;BME280;49837;57.280;27.070;2023-07-31T02:56:38;99341.73;;;16.18;94.83
63691;BME280;49837;57.280;27.070;2023-07-31T02:57:39;99341.58;;;16.18;95.06
63691;BME280;49837;57.280;27.070;2023-07-31T02:58:39;99344.47;;;16.15;95.25
63691;BME280;49837;57.280;27.070;2023-07-31T02:59:40;99345.66;;;16.13;95.4
63691;BME280;49837;57.280;27.070;2023-07-31T03:00:44;99343.67;;;16.09;95.81
63691;BME280;49837;57.280;27.070;2023-07-31T03:01:41;99345.88;;;16.03;95.89
63691;BME280;49837;57.280;27.070;2023-07-31T03:02:42;99343.92;;;16.07;95.44
63691;BME280;49837;57.280;27.070;2023-07-31T03:03:42;99344.73;;;16.1;95.27
63691;BME280;49837;57.280;27.070;2023-07-31T03:04:43;99345.59;;;16.09;94.97
63691;BME280;49837;57.280;27.070;2023-07-31T03:05:43;99345.38;;;16.07;95.4
63691;BME280;49837;57.280;27.070;2023-07-31T03:06:44;99340.86;;;15.98;95.62
63691;BME280;49837;57.280;27.070;2023-07-31T03:07:44;99341.0;;;15.97;95.78
63691;BME280;49837;57.280;27.070;2023-07-31T03:08:45;99340.33;;;15.9;95.59
63691;BME280;49837;57.280;27.070;2023-07-31T03:09:45;99341.34;;;15.9;95.68
63691;BME280;49837;57.280;27.070;2023-07-31T03:10:45;99343.7;;;15.89;95.5
63691;BME280;49837;57.280;27.070;2023-07-31T03:11:46;99347.46;;;15.86;95.14
63691;BME280;49837;57.280;27.070;2023-07-31T03:12:47;99342.83;;;15.84;95.0
63691;BME280;49837;57.280;27.070;2023-07-31T03:13:47;99341.47;;;15.8;95.09
63691;BME280;49837;57.280;27.070;2023-07-31T03:14:47;99344.19;;;15.82;95.22
63691;BME280;49837;57.280;27.070;2023-07-31T03:15:48;99340.73;;;15.81;95.39
63691;BME280;49837;57.280;27.070;2023-07-31T03:16:49;99340.94;;;15.74;95.69
63691;BME280;49837;57.280;27.070;2023-07-31T03:17:49;99341.08;;;15.71;95.85
63691;BME280;49837;57.280;27.070;2023-07-31T03:18:49;99335.06;;;15.68;95.98
63691;BME280;49837;57.280;27.070;2023-07-31T03:19:50;99343.16;;;15.69;95.74
63691;BME280;49837;57.280;27.070;2023-07-31T03:20:50;99339.02;;;15.68;95.8
63691;BME280;49837;57.280;27.070;2023-07-31T03:21:51;99343.56;;;15.68;95.73
63691;BME280;49837;57.280;27.070;2023-07-31T03:22:51;99349.95;;;15.67;95.88
63691;BME280;49837;57.280;27.070;2023-07-31T03:23:52;99346.79;;;15.64;95.96
63691;BME280;49837;57.280;27.070;2023-07-31T03:24:52;99344.89;;;15.63;96.11
63691;BME280;49837;57.280;27.070;2023-07-31T03:26:00;99343.55;;;15.65;96.08
63691;BME280;49837;57.280;27.070;2023-07-31T03:26:52;99340.69;;;15.65;95.99
63691;BME280;49837;57.280;27.070;2023-07-31T03:27:53;99339.85;;;15.63;95.84
63691;BME280;49837;57.280;27.070;2023-07-31T03:28:53;99342.23;;;15.61;95.93
63691;BME280;49837;57.280;27.070;2023-07-31T03:29:54;99341.56;;;15.6;96.03
63691;BME280;49837;57.280;27.070;2023-07-31T03:30:54;99342.14;;;15.63;95.99
63691;BME280;49837;57.280;27.070;2023-07-31T03:31:55;99339.77;;;15.62;96.19
63691;BME280;49837;57.280;27.070;2023-07-31T03:32:55;99340.15;;;15.61;96.27
63691;BME280;49837;57.280;27.070;2023-07-31T03:33:56;99338.2;;;15.6;96.47
63691;BME280;49837;57.280;27.070;2023-07-31T03:34:57;99345.48;;;15.62;96.31
63691;BME280;49837;57.280;27.070;2023-07-31T03:35:57;99345.19;;;15.61;96.52
63691;BME280;49837;57.280;27.070;2023-07-31T03:36:58;99346.72;;;15.65;96.29
63691;BME280;49837;57.280;27.070;2023-07-31T03:37:58;99344.92;;;15.69;96.05
63691;BME280;49837;57.280;27.070;2023-07-31T03:38:58;99345.31;;;15.62;96.13
63691;BME280;49837;57.280;27.070;2023-07-31T03:39:58;99348.37;;;15.63;96.35
63691;BME280;49837;57.280;27.070;2023-07-31T03:40:59;99348.2;;;15.64;96.4
63691;BME280;49837;57.280;27.070;2023-07-31T03:41:59;99349.03;;;15.64;96.43
63691;BME280;49837;57.280;27.070;2023-07-31T03:43:00;99348.7;;;15.63;96.38
63691;BME280;49837;57.280;27.070;2023-07-31T03:44:00;99349.64;;;15.73;96.41
63691;BME280;49837;57.280;27.070;2023-07-31T03:45:01;99348.66;;;15.82;95.94
63691;BME280;49837;57.280;27.070;2023-07-31T03:46:01;99348.91;;;15.81;95.34
63691;BME280;49837;57.280;27.070;2023-07-31T03:47:02;99347.94;;;15.83;95.09
63691;BME280;49837;57.280;27.070;2023-07-31T03:48:03;99351.0;;;15.71;95.22
63691;BME280;49837;57.280;27.070;2023-07-31T03:49:03;99354.61;;;15.69;95.77
63691;BME280;49837;57.280;27.070;2023-07-31T03:50:04;99351.87;;;15.74;95.54
63691;BME280;49837;57.280;27.070;2023-07-31T03:51:04;99352.17;;;15.8;95.18
63691;BME280;49837;57.280;27.070;2023-07-31T03:52:04;99345.45;;;15.78;94.93
63691;BME280;49837;57.280;27.070;2023-07-31T03:53:05;99343.95;;;15.76;94.91
63691;BME280;49837;57.280;27.070;2023-07-31T03:54:05;99343.14;;;15.78;94.89
63691;BME280;49837;57.280;27.070;2023-07-31T03:55:06;99346.18;;;15.79;94.93
63691;BME280;49837;57.280;27.070;2023-07-31T03:56:06;99349.72;;;15.76;95.17
63691;BME280;49837;57.280;27.070;2023-07-31T03:57:06;99346.36;;;15.76;95.34
63691;BME280;49837;57.280;27.070;2023-07-31T03:58:07;99352.82;;;15.8;95.05
63691;BME280;49837;57.280;27.070;2023-07-31T03:59:07;99352.15;;;15.8;94.86
63691;BME280;49837;57.280;27.070;2023-07-31T04:00:08;99349.51;;;15.83;94.72
63691;BME280;49837;57.280;27.070;2023-07-31T04:01:08;99347.53;;;15.84;94.63
63691;BME280;49837;57.280;27.070;2023-07-31T04:02:09;99347.95;;;15.85;94.62
63691;BME280;49837;57.280;27.070;2023-07-31T04:03:09;99344.56;;;15.84;94.33
63691;BME280;49837;57.280;27.070;2023-07-31T04:04:09;99343.41;;;15.88;93.89
63691;BME280;49837;57.280;27.070;2023-07-31T04:05:10;99341.08;;;15.85;93.72
63691;BME280;49837;57.280;27.070;2023-07-31T04:06:11;99341.25;;;15.83;93.69
63691;BME280;49837;57.280;27.070;2023-07-31T04:07:11;99345.06;;;15.83;93.6
63691;BME280;49837;57.280;27.070;2023-07-31T04:08:11;99342.86;;;15.89;93.32
63691;BME280;49837;57.280;27.070;2023-07-31T04:09:12;99346.47;;;15.92;93.0
63691;BME280;49837;57.280;27.070;2023-07-31T04:10:12;99346.56;;;15.95;92.45
63691;BME280;49837;57.280;27.070;2023-07-31T04:11:13;99343.03;;;15.86;91.99
63691;BME280;49837;57.280;27.070;2023-07-31T04:12:13;99345.77;;;15.9;91.96
63691;BME280;49837;57.280;27.070;2023-07-31T04:13:14;99345.69;;;15.93;92.4
63691;BME280;49837;57.280;27.070;2023-07-31T04:14:14;99346.41;;;15.93;91.6
63691;BME280;49837;57.280;27.070;2023-07-31T04:15:15;99346.23;;;15.99;91.17
63691;BME280;49837;57.280;27.070;2023-07-31T04:16:15;99348.91;;;16.02;90.92
63691;BME280;49837;57.280;27.070;2023-07-31T04:17:17;99348.81;;;16.0;90.57
63691;BME280;49837;57.280;27.070;2023-07-31T04:18:17;99344.05;;;15.98;90.46
63691;BME280;49837;57.280;27.070;2023-07-31T04:19:17;99343.85;;;15.96;90.45
63691;BME280;49837;57.280;27.070;2023-07-31T04:20:17;99341.89;;;15.96;90.58
63691;BME280;49837;57.280;27.070;2023-07-31T04:21:17;99343.91;;;15.9;91.01
63691;BME280;49837;57.280;27.070;2023-07-31T04:22:18;99344.17;;;15.82;91.47
63691;BME280;49837;57.280;27.070;2023-07-31T04:23:18;99343.41;;;15.85;91.67
63691;BME280;49837;57.280;27.070;2023-07-31T04:24:19;99343.73;;;15.91;91.7
63691;BME280;49837;57.280;27.070;2023-07-31T04:25:19;99342.72;;;15.99;91.47
63691;BME280;49837;57.280;27.070;2023-07-31T04:26:20;99343.11;;;16.03;91.34
63691;BME280;49837;57.280;27.070;2023-07-31T04:27:20;99340.32;;;16.08;91.14
63691;BME280;49837;57.280;27.070;2023-07-31T04:28:21;99344.27;;;16.12;90.94
63691;BME280;49837;57.280;27.070;2023-07-31T04:29:21;99338.99;;;16.12;90.46
63691;BME280;49837;57.280;27.070;2023-07-31T04:30:22;99340.34;;;16.17;90.13
63691;BME280;49837;57.280;27.070;2023-07-31T04:31:22;99339.84;;;16.23;90.15
63691;BME280;49837;57.280;27.070;2023-07-31T04:32:23;99340.25;;;16.31;90.18
63691;BME280;49837;57.280;27.070;2023-07-31T04:33:23;99344.89;;;16.34;89.6
63691;BME280;49837;57.280;27.070;2023-07-31T04:34:24;99345.17;;;16.27;89.88
63691;BME280;49837;57.280;27.070;2023-07-31T04:35:24;99345.31;;;16.25;89.98
63691;BME280;49837;57.280;27.070;2023-07-31T04:36:24;99343.69;;;16.3;90.85
63691;BME280;49837;57.280;27.070;2023-07-31T04:37:25;99341.94;;;16.35;90.35
63691;BME280;49837;57.280;27.070;2023-07-31T04:38:25;99344.31;;;16.39;89.84
63691;BME280;49837;57.280;27.070;2023-07-31T04:39:26;99345.16;;;16.39;89.49
63691;BME280;49837;57.280;27.070;2023-07-31T04:40:26;99345.44;;;16.44;89.45
63691;BME280;49837;57.280;27.070;2023-07-31T04:41:27;99344.25;;;16.51;89.66
63691;BME280;49837;57.280;27.070;2023-07-31T04:42:27;99346.42;;;16.55;89.33
63691;BME280;49837;57.280;27.070;2023-07-31T04:43:28;99345.81;;;16.5;88.72
63691;BME280;49837;57.280;27.070;2023-07-31T04:44:28;99346.61;;;16.46;88.29
63691;BME280;49837;57.280;27.070;2023-07-31T04:45:29;99345.42;;;16.51;88.4
63691;BME280;49837;57.280;27.070;2023-07-31T04:46:29;99348.05;;;16.51;88.91
63691;BME280;49837;57.280;27.070;2023-07-31T04:47:30;99345.14;;;16.56;88.66
63691;BME280;49837;57.280;27.070;2023-07-31T04:48:30;99347.3;;;16.47;88.5
63691;BME280;49837;57.280;27.070;2023-07-31T04:49:31;99341.53;;;16.47;88.62
63691;BME280;49837;57.280;27.070;2023-07-31T04:50:31;99344.69;;;16.45;88.85
63691;BME280;49837;57.280;27.070;2023-07-31T04:51:31;99346.59;;;16.46;88.67
63691;BME280;49837;57.280;27.070;2023-07-31T04:52:32;99343.55;;;16.51;88.5
63691;BME280;49837;57.280;27.070;2023-07-31T04:53:32;99342.67;;;16.56;88.13
63691;BME280;49837;57.280;27.070;2023-07-31T04:54:33;99346.34;;;16.57;87.95
63691;BME280;49837;57.280;27.070;2023-07-31T04:55:33;99350.78;;;16.62;87.42
63691;BME280;49837;57.280;27.070;2023-07-31T04:56:33;99349.36;;;16.63;87.34
63691;BME280;49837;57.280;27.070;2023-07-31T04:57:34;99349.97;;;16.64;87.2
63691;BME280;49837;57.280;27.070;2023-07-31T04:58:34;99349.16;;;16.61;87.15
63691;BME280;49837;57.280;27.070;2023-07-31T04:59:35;99352.57;;;16.71;87.14
63691;BME280;49837;57.280;27.070;2023-07-31T05:00:35;99355.02;;;16.7;86.34
63691;BME280;49837;57.280;27.070;2023-07-31T05:01:35;99353.36;;;16.67;86.02
63691;BME280;49837;57.280;27.070;2023-07-31T05:02:36;99352.46;;;16.75;85.92
63691;BME280;49837;57.280;27.070;2023-07-31T05:03:36;99356.55;;;16.82;86.15
63691;BME280;49837;57.280;27.070;2023-07-31T05:04:37;99361.03;;;16.97;85.95
63691;BME280;49837;57.280;27.070;2023-07-31T05:05:37;99359.82;;;16.96;84.94
63691;BME280;49837;57.280;27.070;2023-07-31T05:06:37;99360.69;;;16.98;84.94
63691;BME280;49837;57.280;27.070;2023-07-31T05:07:38;99361.44;;;17.02;84.57
63691;BME280;49837;57.280;27.070;2023-07-31T05:08:38;99361.2;;;17.18;84.08
63691;BME280;49837;57.280;27.070;2023-07-31T05:09:39;99363.2;;;17.16;83.57
63691;BME280;49837;57.280;27.070;2023-07-31T05:10:39;99359.7;;;17.13;83.88
63691;BME280;49837;57.280;27.070;2023-07-31T05:11:39;99363.97;;;17.26;83.7
63691;BME280;49837;57.280;27.070;2023-07-31T05:12:40;99364.75;;;17.21;83.19
63691;BME280;49837;57.280;27.070;2023-07-31T05:13:40;99361.77;;;17.21;82.92
63691;BME280;49837;57.280;27.070;2023-07-31T05:14:40;99366.8;;;17.19;82.84
63691;BME280;49837;57.280;27.070;2023-07-31T05:15:41;99356.63;;;17.36;83.41
63691;BME280;49837;57.280;27.070;2023-07-31T05:16:41;99357.72;;;17.35;82.37
63691;BME280;49837;57.280;27.070;2023-07-31T05:17:42;99357.8;;;17.39;82.16
63691;BME280;49837;57.280;27.070;2023-07-31T05:18:43;99359.88;;;17.5;82.25
63691;BME280;49837;57.280;27.070;2023-07-31T05:19:42;99356.28;;;17.47;82.33
63691;BME280;49837;57.280;27.070;2023-07-31T05:20:43;99360.23;;;17.56;82.46
63691;BME280;49837;57.280;27.070;2023-07-31T05:21:43;99363.48;;;17.46;82.22
63691;BME280;49837;57.280;27.070;2023-07-31T05:22:43;99361.15;;;17.45;82.78
63691;BME280;49837;57.280;27.070;2023-07-31T05:23:44;99365.29;;;17.31;81.86
63691;BME280;49837;57.280;27.070;2023-07-31T05:24:44;99366.15;;;17.14;82.48
63691;BME280;49837;57.280;27.070;2023-07-31T05:25:45;99363.61;;;17.07;82.17